Ottumwa, Iowa
Current Conditions -  °F | °C
As of 7:53 AM on Thursday 29 Jan 2015 (Local Time) from KOTM Reporting Station
Overcast Overcast  
Wind Chill: 24°   Ceiling: 1500
Heat Index: 35°   Visibility: 10mi
Dew Point: 31°   Wind: 20mph
Humidity: 85%   Direction: 320°NW
Pressure: 30.07"   Gusts: 31mph
Location:  41.02°N, 92.41°W
Report Text: KOTM 291353Z AUTO 32017G27KT 10SM OVC015 02/M01 A3007 RMK AO2 PK WND 31029/1319 SLP191 T00171006
Loading
Personal Weather Stations






























Interactive Weather Map New forecast layout! Learn more

10-Day Weather Forecast

Advertisements
Track Severe Weather on mobile